sensor_id;sensor_type;location;lat;lon;timestamp;pressure;altitude;pressure_sealevel;temperature;humidity
78623;BME280;67943;54.412;9.502;2023-05-23T00:03:49;101219.09;;;15.77;74.40
78623;BME280;67943;54.412;9.502;2023-05-23T00:08:51;101214.00;;;15.71;74.56
78623;BME280;67943;54.412;9.502;2023-05-23T00:13:54;101219.06;;;15.78;74.40
78623;BME280;67943;54.412;9.502;2023-05-23T00:18:56;101214.66;;;15.77;74.66
78623;BME280;67943;54.412;9.502;2023-05-23T00:23:59;101222.88;;;15.70;74.66
78623;BME280;67943;54.412;9.502;2023-05-23T00:29:03;101208.75;;;15.69;74.86
78623;BME280;67943;54.412;9.502;2023-05-23T00:34:04;101206.97;;;15.70;74.67
78623;BME280;67943;54.412;9.502;2023-05-23T00:39:06;101201.72;;;15.68;74.72
78623;BME280;67943;54.412;9.502;2023-05-23T00:44:10;101195.59;;;15.66;74.92
78623;BME280;67943;54.412;9.502;2023-05-23T00:49:11;101192.78;;;15.71;74.38
78623;BME280;67943;54.412;9.502;2023-05-23T00:54:13;101186.41;;;15.76;74.32
78623;BME280;67943;54.412;9.502;2023-05-23T00:59:17;101178.50;;;15.75;74.15
78623;BME280;67943;54.412;9.502;2023-05-23T01:04:20;101167.13;;;15.71;74.15
78623;BME280;67943;54.412;9.502;2023-05-23T01:09:27;101171.66;;;15.68;74.31
78623;BME280;67943;54.412;9.502;2023-05-23T01:14:34;101157.59;;;15.66;74.76
78623;BME280;67943;54.412;9.502;2023-05-23T01:19:54;101155.31;;;15.55;75.26
78623;BME280;67943;54.412;9.502;2023-05-23T01:25:02;101147.84;;;15.41;75.98
78623;BME280;67943;54.412;9.502;2023-05-23T01:30:10;101133.88;;;15.36;76.02
78623;BME280;67943;54.412;9.502;2023-05-23T01:35:15;101136.66;;;15.33;76.37
78623;BME280;67943;54.412;9.502;2023-05-23T01:40:19;101139.00;;;15.17;77.38
78623;BME280;67943;54.412;9.502;2023-05-23T01:45:22;101135.53;;;15.15;77.58
78623;BME280;67943;54.412;9.502;2023-05-23T01:50:26;101137.09;;;15.21;77.82
78623;BME280;67943;54.412;9.502;2023-05-23T01:55:27;101141.59;;;15.19;77.72
78623;BME280;67943;54.412;9.502;2023-05-23T02:00:31;101143.44;;;15.17;77.84
78623;BME280;67943;54.412;9.502;2023-05-23T02:05:33;101148.78;;;15.15;77.73
78623;BME280;67943;54.412;9.502;2023-05-23T02:10:34;101154.09;;;15.15;77.70
78623;BME280;67943;54.412;9.502;2023-05-23T02:15:37;101147.88;;;15.16;77.77
78623;BME280;67943;54.412;9.502;2023-05-23T02:20:39;101154.09;;;15.15;78.39
78623;BME280;67943;54.412;9.502;2023-05-23T02:25:40;101147.41;;;15.04;78.90
78623;BME280;67943;54.412;9.502;2023-05-23T02:30:43;101150.88;;;15.06;79.16
78623;BME280;67943;54.412;9.502;2023-05-23T02:35:45;101170.56;;;14.99;79.38
78623;BME280;67943;54.412;9.502;2023-05-23T02:40:46;101180.06;;;15.04;79.14
78623;BME280;67943;54.412;9.502;2023-05-23T02:45:50;101165.47;;;14.93;79.61
78623;BME280;67943;54.412;9.502;2023-05-23T02:50:52;101166.41;;;14.92;79.75
78623;BME280;67943;54.412;9.502;2023-05-23T02:55:53;101164.75;;;14.88;79.80
78623;BME280;67943;54.412;9.502;2023-05-23T03:00:56;101172.72;;;14.88;79.37
78623;BME280;67943;54.412;9.502;2023-05-23T03:05:58;101163.94;;;14.85;80.07
78623;BME280;67943;54.412;9.502;2023-05-23T03:10:59;101161.25;;;14.87;79.89
78623;BME280;67943;54.412;9.502;2023-05-23T03:16:02;101163.84;;;14.89;79.48
78623;BME280;67943;54.412;9.502;2023-05-23T03:21:04;101159.66;;;14.81;80.03
78623;BME280;67943;54.412;9.502;2023-05-23T03:26:05;101154.41;;;14.80;80.30
78623;BME280;67943;54.412;9.502;2023-05-23T03:31:08;101149.13;;;14.80;80.11
78623;BME280;67943;54.412;9.502;2023-05-23T03:36:09;101157.09;;;14.78;79.86
78623;BME280;67943;54.412;9.502;2023-05-23T03:41:11;101162.41;;;14.78;80.06
78623;BME280;67943;54.412;9.502;2023-05-23T03:46:14;101169.44;;;14.79;80.23
78623;BME280;67943;54.412;9.502;2023-05-23T03:51:15;101178.31;;;14.78;79.56
78623;BME280;67943;54.412;9.502;2023-05-23T03:56:17;101177.59;;;14.73;79.70
78623;BME280;67943;54.412;9.502;2023-05-23T04:01:20;101163.41;;;14.74;79.67
78623;BME280;67943;54.412;9.502;2023-05-23T04:06:21;101172.47;;;14.69;79.61
78623;BME280;67943;54.412;9.502;2023-05-23T04:11:23;101171.59;;;14.68;79.72
78623;BME280;67943;54.412;9.502;2023-05-23T04:16:26;101172.28;;;14.73;79.88
78623;BME280;67943;54.412;9.502;2023-05-23T04:21:32;101176.53;;;14.79;79.60
78623;BME280;67943;54.412;9.502;2023-05-23T04:26:33;101177.25;;;14.84;79.37
78623;BME280;67943;54.412;9.502;2023-05-23T04:31:36;101182.34;;;14.90;79.27
78623;BME280;67943;54.412;9.502;2023-05-23T04:36:38;101189.53;;;14.86;79.43
78623;BME280;67943;54.412;9.502;2023-05-23T04:41:40;101204.78;;;14.78;79.42
78623;BME280;67943;54.412;9.502;2023-05-23T04:46:42;101208.31;;;14.79;79.54
78623;BME280;67943;54.412;9.502;2023-05-23T04:51:44;101209.13;;;14.81;79.59
78623;BME280;67943;54.412;9.502;2023-05-23T04:56:46;101212.59;;;14.83;79.77
78623;BME280;67943;54.412;9.502;2023-05-23T05:01:49;101224.16;;;14.80;79.80
78623;BME280;67943;54.412;9.502;2023-05-23T05:06:50;101228.91;;;14.71;79.72
78623;BME280;67943;54.412;9.502;2023-05-23T05:11:52;101229.03;;;14.66;79.71
78623;BME280;67943;54.412;9.502;2023-05-23T05:16:55;101237.84;;;14.67;78.89
78623;BME280;67943;54.412;9.502;2023-05-23T05:21:57;101242.56;;;14.57;79.20
78623;BME280;67943;54.412;9.502;2023-05-23T05:26:59;101256.72;;;14.56;79.72
78623;BME280;67943;54.412;9.502;2023-05-23T05:32:03;101257.72;;;14.52;80.05
78623;BME280;67943;54.412;9.502;2023-05-23T05:37:04;101272.69;;;14.53;80.31
78623;BME280;67943;54.412;9.502;2023-05-23T05:42:06;101267.41;;;14.53;80.38
78623;BME280;67943;54.412;9.502;2023-05-23T05:47:08;101270.97;;;14.52;80.42
78623;BME280;67943;54.412;9.502;2023-05-23T05:52:10;101263.84;;;14.54;80.53
78623;BME280;67943;54.412;9.502;2023-05-23T05:57:11;101268.28;;;14.53;80.35
78623;BME280;67943;54.412;9.502;2023-05-23T06:02:14;101277.09;;;14.54;79.74
78623;BME280;67943;54.412;9.502;2023-05-23T06:07:16;101289.63;;;14.47;80.15
78623;BME280;67943;54.412;9.502;2023-05-23T06:12:17;101296.09;;;14.37;79.86
78623;BME280;67943;54.412;9.502;2023-05-23T06:17:20;101304.38;;;14.25;80.55
78623;BME280;67943;54.412;9.502;2023-05-23T06:22:21;101305.06;;;14.32;81.08
78623;BME280;67943;54.412;9.502;2023-05-23T06:27:23;101305.59;;;14.44;80.89
78623;BME280;67943;54.412;9.502;2023-05-23T06:32:26;101309.91;;;14.48;80.02
78623;BME280;67943;54.412;9.502;2023-05-23T06:37:27;101311.16;;;14.66;80.43
78623;BME280;67943;54.412;9.502;2023-05-23T06:42:29;101319.16;;;14.93;79.70
78623;BME280;67943;54.412;9.502;2023-05-23T06:47:32;101312.16;;;15.18;79.40
78623;BME280;67943;54.412;9.502;2023-05-23T06:52:33;101316.13;;;15.31;78.27
78623;BME280;67943;54.412;9.502;2023-05-23T06:57:34;101319.28;;;15.16;78.71
78623;BME280;67943;54.412;9.502;2023-05-23T07:02:37;101325.59;;;14.84;79.64
78623;BME280;67943;54.412;9.502;2023-05-23T07:07:39;101337.91;;;14.57;80.35
78623;BME280;67943;54.412;9.502;2023-05-23T07:12:40;101352.66;;;14.35;80.79
78623;BME280;67943;54.412;9.502;2023-05-23T07:17:43;101359.84;;;13.97;80.96
78623;BME280;67943;54.412;9.502;2023-05-23T07:22:45;101382.31;;;13.82;80.50
78623;BME280;67943;54.412;9.502;2023-05-23T07:27:46;101377.75;;;13.54;80.84
78623;BME280;67943;54.412;9.502;2023-05-23T07:32:49;101384.34;;;13.34;81.38
78623;BME280;67943;54.412;9.502;2023-05-23T07:37:51;101388.97;;;13.26;81.62
78623;BME280;67943;54.412;9.502;2023-05-23T07:42:53;101401.50;;;13.18;81.06
78623;BME280;67943;54.412;9.502;2023-05-23T07:47:56;101398.00;;;13.16;80.90
78623;BME280;67943;54.412;9.502;2023-05-23T07:52:57;101407.34;;;12.91;80.71
78623;BME280;67943;54.412;9.502;2023-05-23T07:57:59;101418.03;;;12.84;81.12
78623;BME280;67943;54.412;9.502;2023-05-23T08:03:03;101423.06;;;12.97;81.13
78623;BME280;67943;54.412;9.502;2023-05-23T08:08:04;101426.56;;;12.99;80.76
78623;BME280;67943;54.412;9.502;2023-05-23T08:13:08;101428.44;;;12.92;80.79
78623;BME280;67943;54.412;9.502;2023-05-23T08:18:11;101432.84;;;12.93;80.21
78623;BME280;67943;54.412;9.502;2023-05-23T08:23:13;101448.06;;;12.80;80.52
78623;BME280;67943;54.412;9.502;2023-05-23T08:28:14;101445.19;;;12.91;79.33
78623;BME280;67943;54.412;9.502;2023-05-23T08:33:17;101454.84;;;12.94;78.45
78623;BME280;67943;54.412;9.502;2023-05-23T08:38:19;101459.78;;;13.09;77.71
78623;BME280;67943;54.412;9.502;2023-05-23T08:43:21;101453.34;;;13.24;76.84
78623;BME280;67943;54.412;9.502;2023-05-23T08:48:25;101462.09;;;13.63;75.87
78623;BME280;67943;54.412;9.502;2023-05-23T08:53:27;101468.94;;;13.73;74.66
78623;BME280;67943;54.412;9.502;2023-05-23T08:58:31;101471.34;;;13.83;73.89
78623;BME280;67943;54.412;9.502;2023-05-23T09:03:36;101470.47;;;13.83;74.48
78623;BME280;67943;54.412;9.502;2023-05-23T09:08:39;101477.44;;;13.85;72.20
78623;BME280;67943;54.412;9.502;2023-05-23T09:13:40;101486.59;;;13.71;72.56
78623;BME280;67943;54.412;9.502;2023-05-23T09:18:43;101492.22;;;13.94;71.47
78623;BME280;67943;54.412;9.502;2023-05-23T09:23:45;101504.31;;;14.04;70.37
78623;BME280;67943;54.412;9.502;2023-05-23T09:28:46;101507.97;;;13.99;70.12
78623;BME280;67943;54.412;9.502;2023-05-23T09:33:49;101502.72;;;14.33;69.32
78623;BME280;67943;54.412;9.502;2023-05-23T09:38:51;101511.50;;;14.35;68.74
78623;BME280;67943;54.412;9.502;2023-05-23T09:43:53;101515.94;;;14.33;67.96
78623;BME280;67943;54.412;9.502;2023-05-23T09:48:58;101524.13;;;14.59;67.65
78623;BME280;67943;54.412;9.502;2023-05-23T09:54:00;101507.66;;;14.46;67.47
78623;BME280;67943;54.412;9.502;2023-05-23T09:59:02;101529.91;;;14.41;66.55
78623;BME280;67943;54.412;9.502;2023-05-23T10:04:08;101530.84;;;14.37;65.91
78623;BME280;67943;54.412;9.502;2023-05-23T10:09:12;101531.59;;;14.76;63.37
78623;BME280;67943;54.412;9.502;2023-05-23T10:14:17;101540.31;;;15.12;62.79
78623;BME280;67943;54.412;9.502;2023-05-23T10:19:23;101528.44;;;15.25;62.05
78623;BME280;67943;54.412;9.502;2023-05-23T10:24:26;101534.31;;;15.35;61.56
78623;BME280;67943;54.412;9.502;2023-05-23T10:29:28;101541.72;;;15.54;60.11
78623;BME280;67943;54.412;9.502;2023-05-23T10:34:39;101548.53;;;15.63;59.20
78623;BME280;67943;54.412;9.502;2023-05-23T10:39:51;101552.84;;;15.36;60.32
78623;BME280;67943;54.412;9.502;2023-05-23T10:45:13;101538.75;;;15.93;59.19
78623;BME280;67943;54.412;9.502;2023-05-23T10:50:32;101542.84;;;16.30;55.49
78623;BME280;67943;54.412;9.502;2023-05-23T10:55:35;101554.53;;;16.24;57.26
78623;BME280;67943;54.412;9.502;2023-05-23T11:00:37;101548.41;;;16.48;53.76
78623;BME280;67943;54.412;9.502;2023-05-23T11:05:46;101555.50;;;15.95;55.91
78623;BME280;67943;54.412;9.502;2023-05-23T11:10:52;101554.19;;;15.80;56.75
78623;BME280;67943;54.412;9.502;2023-05-23T11:15:54;101552.91;;;15.64;56.13
78623;BME280;67943;54.412;9.502;2023-05-23T11:20:57;101546.75;;;15.92;55.70
78623;BME280;67943;54.412;9.502;2023-05-23T11:26:01;101567.06;;;16.20;55.05
78623;BME280;67943;54.412;9.502;2023-05-23T11:31:04;101557.16;;;16.52;52.97
78623;BME280;67943;54.412;9.502;2023-05-23T11:36:10;101549.03;;;16.57;53.29
78623;BME280;67943;54.412;9.502;2023-05-23T11:41:11;101559.75;;;16.27;55.13
78623;BME280;67943;54.412;9.502;2023-05-23T11:46:13;101565.25;;;16.21;54.18
78623;BME280;67943;54.412;9.502;2023-05-23T11:51:16;101564.13;;;16.02;54.85
78623;BME280;67943;54.412;9.502;2023-05-23T11:56:19;101582.66;;;16.03;55.33
78623;BME280;67943;54.412;9.502;2023-05-23T12:01:28;101581.56;;;16.63;52.26
78623;BME280;67943;54.412;9.502;2023-05-23T12:06:31;101577.63;;;16.75;51.55
78623;BME280;67943;54.412;9.502;2023-05-23T12:11:34;101586.25;;;16.55;52.32
78623;BME280;67943;54.412;9.502;2023-05-23T12:16:35;101579.75;;;16.39;51.94
78623;BME280;67943;54.412;9.502;2023-05-23T12:21:42;101579.25;;;16.26;52.26
78623;BME280;67943;54.412;9.502;2023-05-23T12:26:46;101585.72;;;16.45;53.92
78623;BME280;67943;54.412;9.502;2023-05-23T12:31:48;101589.50;;;16.38;51.72
78623;BME280;67943;54.412;9.502;2023-05-23T12:36:55;101593.44;;;17.04;50.27
78623;BME280;67943;54.412;9.502;2023-05-23T12:42:06;101603.50;;;16.43;51.43
78623;BME280;67943;54.412;9.502;2023-05-23T12:47:07;101608.59;;;16.76;52.55
78623;BME280;67943;54.412;9.502;2023-05-23T12:52:10;101611.81;;;17.10;51.68
78623;BME280;67943;54.412;9.502;2023-05-23T12:57:12;101614.66;;;17.06;50.42
78623;BME280;67943;54.412;9.502;2023-05-23T13:02:14;101628.22;;;16.73;50.59
78623;BME280;67943;54.412;9.502;2023-05-23T13:07:17;101620.75;;;16.30;50.48
78623;BME280;67943;54.412;9.502;2023-05-23T13:12:18;101630.41;;;15.75;51.91
78623;BME280;67943;54.412;9.502;2023-05-23T13:17:20;101631.69;;;15.92;53.29
78623;BME280;67943;54.412;9.502;2023-05-23T13:22:23;101624.38;;;16.00;54.08
78623;BME280;67943;54.412;9.502;2023-05-23T13:27:25;101637.31;;;16.10;52.13
78623;BME280;67943;54.412;9.502;2023-05-23T13:32:26;101644.56;;;16.05;51.85
78623;BME280;67943;54.412;9.502;2023-05-23T13:37:29;101649.56;;;15.86;52.40
78623;BME280;67943;54.412;9.502;2023-05-23T13:42:30;101652.19;;;15.57;52.83
78623;BME280;67943;54.412;9.502;2023-05-23T13:47:32;101651.03;;;15.66;52.75
78623;BME280;67943;54.412;9.502;2023-05-23T13:52:35;101659.06;;;14.99;52.55
78623;BME280;67943;54.412;9.502;2023-05-23T13:57:36;101662.06;;;14.85;53.31
78623;BME280;67943;54.412;9.502;2023-05-23T14:02:38;101664.03;;;14.77;54.79
78623;BME280;67943;54.412;9.502;2023-05-23T14:07:41;101666.41;;;14.88;54.95
78623;BME280;67943;54.412;9.502;2023-05-23T14:12:46;101684.84;;;14.93;54.53
78623;BME280;67943;54.412;9.502;2023-05-23T14:17:47;101676.13;;;14.52;55.24
78623;BME280;67943;54.412;9.502;2023-05-23T14:22:55;101668.63;;;14.71;54.98
78623;BME280;67943;54.412;9.502;2023-05-23T14:27:57;101679.13;;;14.74;54.04
78623;BME280;67943;54.412;9.502;2023-05-23T14:32:58;101662.72;;;14.60;54.59
78623;BME280;67943;54.412;9.502;2023-05-23T14:38:01;101679.66;;;14.52;53.83
78623;BME280;67943;54.412;9.502;2023-05-23T14:43:03;101678.78;;;14.52;53.43
78623;BME280;67943;54.412;9.502;2023-05-23T14:48:04;101676.59;;;14.31;54.21
78623;BME280;67943;54.412;9.502;2023-05-23T14:53:07;101680.19;;;14.28;54.25
78623;BME280;67943;54.412;9.502;2023-05-23T14:58:09;101690.78;;;14.28;54.05
78623;BME280;67943;54.412;9.502;2023-05-23T15:03:10;101688.59;;;14.08;55.54
78623;BME280;67943;54.412;9.502;2023-05-23T15:08:13;101696.97;;;13.87;56.73
78623;BME280;67943;54.412;9.502;2023-05-23T15:13:15;101695.56;;;13.71;57.03
78623;BME280;67943;54.412;9.502;2023-05-23T15:18:17;101695.47;;;13.75;56.05
78623;BME280;67943;54.412;9.502;2023-05-23T15:23:20;101709.69;;;13.70;55.98
78623;BME280;67943;54.412;9.502;2023-05-23T15:28:21;101713.66;;;13.47;55.98
78623;BME280;67943;54.412;9.502;2023-05-23T15:33:23;101713.31;;;13.64;56.60
78623;BME280;67943;54.412;9.502;2023-05-23T15:38:26;101700.78;;;13.74;55.62
78623;BME280;67943;54.412;9.502;2023-05-23T15:43:27;101709.19;;;13.51;56.84
78623;BME280;67943;54.412;9.502;2023-05-23T15:48:28;101710.63;;;13.66;55.88
78623;BME280;67943;54.412;9.502;2023-05-23T15:53:31;101709.56;;;13.28;56.24
78623;BME280;67943;54.412;9.502;2023-05-23T15:58:33;101715.94;;;13.18;56.90
78623;BME280;67943;54.412;9.502;2023-05-23T16:03:35;101708.94;;;13.15;57.68
78623;BME280;67943;54.412;9.502;2023-05-23T16:08:38;101707.19;;;13.16;58.39
78623;BME280;67943;54.412;9.502;2023-05-23T16:13:40;101708.25;;;13.03;57.97
78623;BME280;67943;54.412;9.502;2023-05-23T16:18:41;101713.63;;;12.98;58.02
78623;BME280;67943;54.412;9.502;2023-05-23T16:23:44;101707.56;;;12.92;58.32
78623;BME280;67943;54.412;9.502;2023-05-23T16:28:46;101700.53;;;12.91;58.60
78623;BME280;67943;54.412;9.502;2023-05-23T16:33:47;101706.06;;;12.75;58.96
78623;BME280;67943;54.412;9.502;2023-05-23T16:38:50;101714.28;;;12.57;59.12
78623;BME280;67943;54.412;9.502;2023-05-23T16:43:51;101717.66;;;12.68;59.90
78623;BME280;67943;54.412;9.502;2023-05-23T16:48:53;101718.72;;;12.55;59.29
78623;BME280;67943;54.412;9.502;2023-05-23T16:53:56;101718.75;;;12.52;59.61
78623;BME280;67943;54.412;9.502;2023-05-23T16:58:57;101713.50;;;12.49;59.98
78623;BME280;67943;54.412;9.502;2023-05-23T17:03:59;101715.97;;;12.61;60.31
78623;BME280;67943;54.412;9.502;2023-05-23T17:09:02;101721.44;;;12.49;59.56
78623;BME280;67943;54.412;9.502;2023-05-23T17:14:03;101716.19;;;12.46;59.88
78623;BME280;67943;54.412;9.502;2023-05-23T17:19:05;101712.03;;;12.31;60.56
78623;BME280;67943;54.412;9.502;2023-05-23T17:24:08;101708.44;;;12.37;60.06
78623;BME280;67943;54.412;9.502;2023-05-23T17:29:09;101722.75;;;12.17;60.75
78623;BME280;67943;54.412;9.502;2023-05-23T17:34:11;101717.59;;;12.11;60.92
78623;BME280;67943;54.412;9.502;2023-05-23T17:39:14;101719.28;;;12.14;61.56
78623;BME280;67943;54.412;9.502;2023-05-23T17:44:16;101731.44;;;12.26;60.85
78623;BME280;67943;54.412;9.502;2023-05-23T17:49:18;101729.06;;;12.07;61.66
78623;BME280;67943;54.412;9.502;2023-05-23T17:54:22;101739.72;;;11.98;62.12
78623;BME280;67943;54.412;9.502;2023-05-23T17:59:23;101737.94;;;12.00;62.85
78623;BME280;67943;54.412;9.502;2023-05-23T18:04:26;101724.56;;;12.14;62.40
78623;BME280;67943;54.412;9.502;2023-05-23T18:09:29;101741.38;;;12.07;62.56
78623;BME280;67943;54.412;9.502;2023-05-23T18:14:31;101734.38;;;12.04;62.46
78623;BME280;67943;54.412;9.502;2023-05-23T18:19:33;101734.53;;;11.92;63.25
78623;BME280;67943;54.412;9.502;2023-05-23T18:24:36;101725.75;;;11.92;63.05
78623;BME280;67943;54.412;9.502;2023-05-23T18:29:37;101733.84;;;11.78;63.10
78623;BME280;67943;54.412;9.502;2023-05-23T18:34:39;101740.00;;;11.77;63.88
78623;BME280;67943;54.412;9.502;2023-05-23T18:39:42;101743.50;;;11.79;63.88
78623;BME280;67943;54.412;9.502;2023-05-23T18:44:43;101750.44;;;11.84;63.62
78623;BME280;67943;54.412;9.502;2023-05-23T18:49:44;101757.44;;;11.87;63.26
78623;BME280;67943;54.412;9.502;2023-05-23T18:54:49;101751.31;;;11.85;62.70
78623;BME280;67943;54.412;9.502;2023-05-23T18:59:52;101755.88;;;11.68;63.60
78623;BME280;67943;54.412;9.502;2023-05-23T19:04:54;101756.81;;;11.61;63.81
78623;BME280;67943;54.412;9.502;2023-05-23T19:09:57;101759.47;;;11.61;63.33
78623;BME280;67943;54.412;9.502;2023-05-23T19:14:58;101766.53;;;11.56;63.85
78623;BME280;67943;54.412;9.502;2023-05-23T19:20:00;101772.75;;;11.53;63.85
78623;BME280;67943;54.412;9.502;2023-05-23T19:25:03;101777.94;;;11.56;63.93
78623;BME280;67943;54.412;9.502;2023-05-23T19:30:07;101781.53;;;11.52;64.28
78623;BME280;67943;54.412;9.502;2023-05-23T19:35:09;101790.25;;;11.56;64.44
78623;BME280;67943;54.412;9.502;2023-05-23T19:40:12;101792.72;;;11.74;63.99
78623;BME280;67943;54.412;9.502;2023-05-23T19:45:13;101785.03;;;11.54;64.47
78623;BME280;67943;54.412;9.502;2023-05-23T19:50:16;101795.66;;;11.45;64.66
78623;BME280;67943;54.412;9.502;2023-05-23T19:55:19;101799.03;;;11.58;64.23
78623;BME280;67943;54.412;9.502;2023-05-23T20:00:21;101789.59;;;11.35;64.59
78623;BME280;67943;54.412;9.502;2023-05-23T20:05:22;101786.19;;;11.24;64.65
78623;BME280;67943;54.412;9.502;2023-05-23T20:10:25;101795.78;;;11.28;65.01
78623;BME280;67943;54.412;9.502;2023-05-23T20:15:27;101790.59;;;11.22;65.23
78623;BME280;67943;54.412;9.502;2023-05-23T20:20:29;101784.47;;;11.20;65.27
78623;BME280;67943;54.412;9.502;2023-05-23T20:25:31;101783.59;;;11.18;65.73
78623;BME280;67943;54.412;9.502;2023-05-23T20:30:33;101784.53;;;11.11;65.87
78623;BME280;67943;54.412;9.502;2023-05-23T20:35:34;101787.06;;;11.25;66.04
78623;BME280;67943;54.412;9.502;2023-05-23T20:40:37;101785.19;;;11.34;65.69
78623;BME280;67943;54.412;9.502;2023-05-23T20:45:39;101788.84;;;11.23;66.13
78623;BME280;67943;54.412;9.502;2023-05-23T20:50:40;101786.19;;;11.24;66.49
78623;BME280;67943;54.412;9.502;2023-05-23T20:55:44;101787.09;;;11.20;66.75
78623;BME280;67943;54.412;9.502;2023-05-23T21:00:46;101797.66;;;11.15;66.83
78623;BME280;67943;54.412;9.502;2023-05-23T21:05:47;101795.00;;;11.20;67.12
78623;BME280;67943;54.412;9.502;2023-05-23T21:10:50;101789.72;;;11.23;67.10
78623;BME280;67943;54.412;9.502;2023-05-23T21:15:52;101784.44;;;11.22;66.89
78623;BME280;67943;54.412;9.502;2023-05-23T21:20:53;101797.63;;;11.23;67.09
78623;BME280;67943;54.412;9.502;2023-05-23T21:25:56;101788.00;;;11.16;67.28
78623;BME280;67943;54.412;9.502;2023-05-23T21:30:58;101780.06;;;11.19;66.99
78623;BME280;67943;54.412;9.502;2023-05-23T21:35:59;101783.63;;;11.12;67.05
78623;BME280;67943;54.412;9.502;2023-05-23T21:41:02;101788.91;;;11.13;67.28
78623;BME280;67943;54.412;9.502;2023-05-23T21:46:04;101786.22;;;11.18;67.49
78623;BME280;67943;54.412;9.502;2023-05-23T21:51:05;101786.28;;;11.12;67.42
78623;BME280;67943;54.412;9.502;2023-05-23T21:56:08;101780.13;;;11.11;67.77
78623;BME280;67943;54.412;9.502;2023-05-23T22:01:09;101784.50;;;11.12;67.69
78623;BME280;67943;54.412;9.502;2023-05-23T22:06:11;101795.13;;;11.02;68.44
78623;BME280;67943;54.412;9.502;2023-05-23T22:11:14;101783.63;;;11.12;68.05
78623;BME280;67943;54.412;9.502;2023-05-23T22:16:15;101786.31;;;11.06;68.70
78623;BME280;67943;54.412;9.502;2023-05-23T22:21:17;101795.94;;;11.10;68.69
78623;BME280;67943;54.412;9.502;2023-05-23T22:26:20;101793.31;;;11.10;68.91
78623;BME280;67943;54.412;9.502;2023-05-23T22:31:22;101788.06;;;11.07;69.12
78623;BME280;67943;54.412;9.502;2023-05-23T22:36:24;101791.59;;;11.03;69.61
78623;BME280;67943;54.412;9.502;2023-05-23T22:41:27;101786.28;;;11.10;69.60
78623;BME280;67943;54.412;9.502;2023-05-23T22:46:28;101789.75;;;11.17;69.60
78623;BME280;67943;54.412;9.502;2023-05-23T22:51:30;101794.97;;;11.23;69.75
78623;BME280;67943;54.412;9.502;2023-05-23T22:56:34;101794.22;;;11.04;70.56
78623;BME280;67943;54.412;9.502;2023-05-23T23:01:36;101791.59;;;11.06;70.73
78623;BME280;67943;54.412;9.502;2023-05-23T23:06:37;101785.44;;;11.05;70.95
78623;BME280;67943;54.412;9.502;2023-05-23T23:11:43;101785.47;;;11.01;71.69
78623;BME280;67943;54.412;9.502;2023-05-23T23:16:45;101785.44;;;11.04;72.06
78623;BME280;67943;54.412;9.502;2023-05-23T23:21:48;101785.56;;;10.90;73.55
78623;BME280;67943;54.412;9.502;2023-05-23T23:26:51;101786.47;;;10.85;73.98
78623;BME280;67943;54.412;9.502;2023-05-23T23:31:53;101788.22;;;10.89;73.89
78623;BME280;67943;54.412;9.502;2023-05-23T23:36:57;101781.22;;;10.81;74.09
78623;BME280;67943;54.412;9.502;2023-05-23T23:42:00;101777.72;;;10.82;73.81
78623;BME280;67943;54.412;9.502;2023-05-23T23:47:02;101773.38;;;10.75;74.38
78623;BME280;67943;54.412;9.502;2023-05-23T23:52:04;101772.50;;;10.73;74.58
78623;BME280;67943;54.412;9.502;2023-05-23T23:57:07;101772.53;;;10.70;74.80
